Terminal Aerodrome Forecast
Issued by NWS

Current Version | Previous Version | Text Only | Print | Product List | Glossary On
Versions: 1 2 3 4 5 6 7 8 9 10 11 12 13 14 15
000
FTUS42 KGSP 111140
TAFAND
TAF
KAND 111140Z 1112/1212 00000KT P6SM SKC
     FM111330 07003KT P6SM BKN040
     FM111600 08005KT P6SM OVC030
     FM112000 05005KT P6SM -DZ OVC025
     FM120000 07004KT P6SM -DZ OVC015 PROB30 1200/1206 3SM -RA BR
     FM120800 00000KT 4SM -DZ BR SCT007 OVC015 WS020/22035KT=

USA.gov is the U.S. government's official web portal to all federal, state and local government web resources and services.